sensor_id;sensor_type;location;lat;lon;timestamp;P1;durP1;ratioP1;P2;durP2;ratioP2
49852;SDS011;35751;48.072;11.688;2023-06-10T00:01:39;9.13;;;7.85;;
49852;SDS011;35751;48.072;11.688;2023-06-10T00:04:04;10.43;;;8.05;;
49852;SDS011;35751;48.072;11.688;2023-06-10T00:06:30;10.48;;;8.45;;
49852;SDS011;35751;48.072;11.688;2023-06-10T00:09:07;9.45;;;8.13;;
49852;SDS011;35751;48.072;11.688;2023-06-10T00:11:35;9.38;;;7.40;;
49852;SDS011;35751;48.072;11.688;2023-06-10T00:14:01;9.77;;;8.65;;
49852;SDS011;35751;48.072;11.688;2023-06-10T00:16:26;8.52;;;7.38;;
49852;SDS011;35751;48.072;11.688;2023-06-10T00:18:52;11.50;;;9.25;;
49852;SDS011;35751;48.072;11.688;2023-06-10T00:21:18;10.30;;;8.32;;
49852;SDS011;35751;48.072;11.688;2023-06-10T00:23:44;9.80;;;8.65;;
49852;SDS011;35751;48.072;11.688;2023-06-10T00:26:09;8.85;;;7.75;;
49852;SDS011;35751;48.072;11.688;2023-06-10T00:28:35;8.27;;;7.10;;
49852;SDS011;35751;48.072;11.688;2023-06-10T00:31:00;9.15;;;8.15;;
49852;SDS011;35751;48.072;11.688;2023-06-10T00:33:26;10.05;;;9.05;;
49852;SDS011;35751;48.072;11.688;2023-06-10T00:35:51;9.90;;;8.05;;
49852;SDS011;35751;48.072;11.688;2023-06-10T00:38:17;9.38;;;8.45;;
49852;SDS011;35751;48.072;11.688;2023-06-10T00:40:42;10.23;;;8.73;;
49852;SDS011;35751;48.072;11.688;2023-06-10T00:43:07;9.82;;;8.32;;
49852;SDS011;35751;48.072;11.688;2023-06-10T00:45:33;12.30;;;9.05;;
49852;SDS011;35751;48.072;11.688;2023-06-10T00:47:59;11.27;;;9.23;;
49852;SDS011;35751;48.072;11.688;2023-06-10T00:50:25;10.73;;;8.05;;
49852;SDS011;35751;48.072;11.688;2023-06-10T00:52:50;11.32;;;9.50;;
49852;SDS011;35751;48.072;11.688;2023-06-10T00:55:16;11.80;;;9.40;;
49852;SDS011;35751;48.072;11.688;2023-06-10T00:57:42;10.52;;;8.98;;
49852;SDS011;35751;48.072;11.688;2023-06-10T01:00:09;12.30;;;9.27;;
49852;SDS011;35751;48.072;11.688;2023-06-10T01:02:35;12.35;;;8.73;;
49852;SDS011;35751;48.072;11.688;2023-06-10T01:05:01;11.93;;;10.02;;
49852;SDS011;35751;48.072;11.688;2023-06-10T01:13:02;23.25;;;11.15;;
49852;SDS011;35751;48.072;11.688;2023-06-10T01:15:29;9.25;;;7.50;;
49852;SDS011;35751;48.072;11.688;2023-06-10T01:17:56;10.20;;;8.38;;
49852;SDS011;35751;48.072;11.688;2023-06-10T01:20:23;10.45;;;8.00;;
49852;SDS011;35751;48.072;11.688;2023-06-10T01:22:49;11.10;;;8.32;;
49852;SDS011;35751;48.072;11.688;2023-06-10T01:25:15;10.25;;;8.40;;
49852;SDS011;35751;48.072;11.688;2023-06-10T01:27:42;11.00;;;9.30;;
49852;SDS011;35751;48.072;11.688;2023-06-10T01:30:14;12.23;;;9.05;;
49852;SDS011;35751;48.072;11.688;2023-06-10T01:32:43;10.68;;;9.20;;
49852;SDS011;35751;48.072;11.688;2023-06-10T01:35:10;11.75;;;9.77;;
49852;SDS011;35751;48.072;11.688;2023-06-10T01:37:36;9.30;;;8.30;;
49852;SDS011;35751;48.072;11.688;2023-06-10T01:40:03;10.10;;;8.45;;
49852;SDS011;35751;48.072;11.688;2023-06-10T01:42:31;9.45;;;8.00;;
49852;SDS011;35751;48.072;11.688;2023-06-10T01:44:57;8.82;;;7.93;;
49852;SDS011;35751;48.072;11.688;2023-06-10T01:47:22;9.52;;;8.32;;
49852;SDS011;35751;48.072;11.688;2023-06-10T01:49:48;11.27;;;8.60;;
49852;SDS011;35751;48.072;11.688;2023-06-10T01:52:13;10.65;;;8.45;;
49852;SDS011;35751;48.072;11.688;2023-06-10T01:54:38;10.40;;;8.10;;
49852;SDS011;35751;48.072;11.688;2023-06-10T01:57:04;9.50;;;7.85;;
49852;SDS011;35751;48.072;11.688;2023-06-10T01:59:31;13.57;;;7.80;;
49852;SDS011;35751;48.072;11.688;2023-06-10T02:01:56;11.90;;;8.88;;
49852;SDS011;35751;48.072;11.688;2023-06-10T02:04:22;12.23;;;9.20;;
49852;SDS011;35751;48.072;11.688;2023-06-10T02:06:47;8.88;;;7.80;;
49852;SDS011;35751;48.072;11.688;2023-06-10T02:09:13;9.75;;;8.10;;
49852;SDS011;35751;48.072;11.688;2023-06-10T02:11:38;11.23;;;8.27;;
49852;SDS011;35751;48.072;11.688;2023-06-10T02:14:04;10.35;;;8.52;;
49852;SDS011;35751;48.072;11.688;2023-06-10T02:16:29;10.32;;;8.30;;
49852;SDS011;35751;48.072;11.688;2023-06-10T02:18:55;11.55;;;8.82;;
49852;SDS011;35751;48.072;11.688;2023-06-10T02:21:21;10.20;;;8.85;;
49852;SDS011;35751;48.072;11.688;2023-06-10T02:23:46;13.40;;;9.05;;
49852;SDS011;35751;48.072;11.688;2023-06-10T02:26:12;10.02;;;8.95;;
49852;SDS011;35751;48.072;11.688;2023-06-10T02:28:37;11.07;;;8.32;;
49852;SDS011;35751;48.072;11.688;2023-06-10T02:31:02;11.95;;;8.45;;
49852;SDS011;35751;48.072;11.688;2023-06-10T02:33:28;10.48;;;8.27;;
49852;SDS011;35751;48.072;11.688;2023-06-10T02:35:53;12.02;;;9.73;;
49852;SDS011;35751;48.072;11.688;2023-06-10T02:38:18;11.07;;;7.78;;
49852;SDS011;35751;48.072;11.688;2023-06-10T02:40:44;10.73;;;8.57;;
49852;SDS011;35751;48.072;11.688;2023-06-10T02:43:09;12.18;;;9.80;;
49852;SDS011;35751;48.072;11.688;2023-06-10T02:45:35;10.15;;;8.30;;
49852;SDS011;35751;48.072;11.688;2023-06-10T02:48:00;11.00;;;9.63;;
49852;SDS011;35751;48.072;11.688;2023-06-10T02:50:25;9.85;;;8.82;;
49852;SDS011;35751;48.072;11.688;2023-06-10T02:52:51;12.07;;;9.23;;
49852;SDS011;35751;48.072;11.688;2023-06-10T02:55:16;12.27;;;9.88;;
49852;SDS011;35751;48.072;11.688;2023-06-10T02:57:41;12.25;;;10.15;;
49852;SDS011;35751;48.072;11.688;2023-06-10T03:00:07;12.73;;;9.38;;
49852;SDS011;35751;48.072;11.688;2023-06-10T03:02:36;9.65;;;8.43;;
49852;SDS011;35751;48.072;11.688;2023-06-10T03:05:03;11.20;;;9.73;;
49852;SDS011;35751;48.072;11.688;2023-06-10T03:07:30;11.50;;;8.98;;
49852;SDS011;35751;48.072;11.688;2023-06-10T03:09:55;10.45;;;8.80;;
49852;SDS011;35751;48.072;11.688;2023-06-10T03:12:21;12.98;;;10.07;;
49852;SDS011;35751;48.072;11.688;2023-06-10T03:14:46;11.27;;;9.23;;
49852;SDS011;35751;48.072;11.688;2023-06-10T03:17:12;12.50;;;10.05;;
49852;SDS011;35751;48.072;11.688;2023-06-10T03:19:37;10.50;;;8.85;;
49852;SDS011;35751;48.072;11.688;2023-06-10T03:24:35;11.13;;;9.43;;
49852;SDS011;35751;48.072;11.688;2023-06-10T03:27:01;15.63;;;9.48;;
49852;SDS011;35751;48.072;11.688;2023-06-10T03:29:27;11.90;;;9.45;;
49852;SDS011;35751;48.072;11.688;2023-06-10T03:31:52;9.30;;;7.93;;
49852;SDS011;35751;48.072;11.688;2023-06-10T03:34:18;10.02;;;8.48;;
49852;SDS011;35751;48.072;11.688;2023-06-10T03:36:43;10.00;;;8.90;;
49852;SDS011;35751;48.072;11.688;2023-06-10T03:39:08;9.40;;;7.50;;
49852;SDS011;35751;48.072;11.688;2023-06-10T03:41:34;10.05;;;7.60;;
49852;SDS011;35751;48.072;11.688;2023-06-10T03:43:59;10.43;;;8.13;;
49852;SDS011;35751;48.072;11.688;2023-06-10T03:46:25;10.88;;;8.80;;
49852;SDS011;35751;48.072;11.688;2023-06-10T03:48:51;14.38;;;8.60;;
49852;SDS011;35751;48.072;11.688;2023-06-10T03:51:16;9.80;;;8.20;;
49852;SDS011;35751;48.072;11.688;2023-06-10T03:53:41;11.75;;;8.05;;
49852;SDS011;35751;48.072;11.688;2023-06-10T03:56:07;9.02;;;7.88;;
49852;SDS011;35751;48.072;11.688;2023-06-10T03:58:32;9.77;;;8.50;;
49852;SDS011;35751;48.072;11.688;2023-06-10T04:00:57;10.63;;;8.95;;
49852;SDS011;35751;48.072;11.688;2023-06-10T04:03:23;9.85;;;7.75;;
49852;SDS011;35751;48.072;11.688;2023-06-10T04:05:48;11.45;;;8.38;;
49852;SDS011;35751;48.072;11.688;2023-06-10T04:08:15;10.20;;;8.82;;
49852;SDS011;35751;48.072;11.688;2023-06-10T04:10:40;11.85;;;8.95;;
49852;SDS011;35751;48.072;11.688;2023-06-10T04:13:05;11.88;;;7.90;;
49852;SDS011;35751;48.072;11.688;2023-06-10T04:15:31;11.35;;;9.38;;
49852;SDS011;35751;48.072;11.688;2023-06-10T04:17:59;11.38;;;8.63;;
49852;SDS011;35751;48.072;11.688;2023-06-10T04:20:25;10.52;;;8.50;;
49852;SDS011;35751;48.072;11.688;2023-06-10T04:22:51;12.85;;;9.20;;
49852;SDS011;35751;48.072;11.688;2023-06-10T04:25:16;12.85;;;9.32;;
49852;SDS011;35751;48.072;11.688;2023-06-10T04:27:41;9.68;;;8.65;;
49852;SDS011;35751;48.072;11.688;2023-06-10T04:30:07;12.65;;;9.60;;
49852;SDS011;35751;48.072;11.688;2023-06-10T04:32:32;11.45;;;8.43;;
49852;SDS011;35751;48.072;11.688;2023-06-10T04:34:59;14.48;;;10.43;;
49852;SDS011;35751;48.072;11.688;2023-06-10T04:37:24;10.25;;;8.48;;
49852;SDS011;35751;48.072;11.688;2023-06-10T04:39:50;11.60;;;9.55;;
49852;SDS011;35751;48.072;11.688;2023-06-10T04:42:15;12.55;;;10.05;;
49852;SDS011;35751;48.072;11.688;2023-06-10T04:44:41;11.48;;;9.15;;
49852;SDS011;35751;48.072;11.688;2023-06-10T04:47:06;11.68;;;9.75;;
49852;SDS011;35751;48.072;11.688;2023-06-10T04:49:32;11.35;;;8.60;;
49852;SDS011;35751;48.072;11.688;2023-06-10T04:51:58;11.10;;;8.93;;
49852;SDS011;35751;48.072;11.688;2023-06-10T04:54:25;11.38;;;8.93;;
49852;SDS011;35751;48.072;11.688;2023-06-10T04:56:50;9.75;;;8.75;;
49852;SDS011;35751;48.072;11.688;2023-06-10T04:59:16;11.70;;;9.50;;
49852;SDS011;35751;48.072;11.688;2023-06-10T05:01:41;14.32;;;11.82;;
49852;SDS011;35751;48.072;11.688;2023-06-10T05:04:06;10.43;;;9.23;;
49852;SDS011;35751;48.072;11.688;2023-06-10T05:06:32;13.60;;;10.20;;
49852;SDS011;35751;48.072;11.688;2023-06-10T05:08:57;16.25;;;11.65;;
49852;SDS011;35751;48.072;11.688;2023-06-10T05:11:22;14.95;;;11.13;;
49852;SDS011;35751;48.072;11.688;2023-06-10T05:13:48;14.23;;;11.15;;
49852;SDS011;35751;48.072;11.688;2023-06-10T05:16:13;16.90;;;12.65;;
49852;SDS011;35751;48.072;11.688;2023-06-10T05:18:40;14.20;;;10.68;;
49852;SDS011;35751;48.072;11.688;2023-06-10T05:21:05;13.43;;;11.15;;
49852;SDS011;35751;48.072;11.688;2023-06-10T05:23:31;16.73;;;11.15;;
49852;SDS011;35751;48.072;11.688;2023-06-10T05:25:56;16.55;;;11.88;;
49852;SDS011;35751;48.072;11.688;2023-06-10T05:28:21;18.23;;;12.25;;
49852;SDS011;35751;48.072;11.688;2023-06-10T05:30:47;13.70;;;10.85;;
49852;SDS011;35751;48.072;11.688;2023-06-10T05:33:12;17.77;;;12.65;;
49852;SDS011;35751;48.072;11.688;2023-06-10T05:35:37;15.07;;;10.82;;
49852;SDS011;35751;48.072;11.688;2023-06-10T05:38:03;18.92;;;12.55;;
49852;SDS011;35751;48.072;11.688;2023-06-10T05:40:28;17.98;;;13.00;;
49852;SDS011;35751;48.072;11.688;2023-06-10T05:42:53;21.90;;;12.93;;
49852;SDS011;35751;48.072;11.688;2023-06-10T05:45:19;17.73;;;11.63;;
49852;SDS011;35751;48.072;11.688;2023-06-10T05:47:44;14.68;;;11.02;;
49852;SDS011;35751;48.072;11.688;2023-06-10T05:50:09;15.10;;;12.15;;
49852;SDS011;35751;48.072;11.688;2023-06-10T05:52:35;15.07;;;11.80;;
49852;SDS011;35751;48.072;11.688;2023-06-10T05:55:04;15.02;;;10.77;;
49852;SDS011;35751;48.072;11.688;2023-06-10T05:57:30;16.20;;;10.95;;
49852;SDS011;35751;48.072;11.688;2023-06-10T05:59:55;13.10;;;10.27;;
49852;SDS011;35751;48.072;11.688;2023-06-10T06:02:20;15.38;;;10.68;;
49852;SDS011;35751;48.072;11.688;2023-06-10T06:04:46;14.18;;;11.23;;
49852;SDS011;35751;48.072;11.688;2023-06-10T06:07:11;14.93;;;10.73;;
49852;SDS011;35751;48.072;11.688;2023-06-10T06:09:36;14.13;;;10.20;;
49852;SDS011;35751;48.072;11.688;2023-06-10T06:12:02;12.10;;;9.88;;
49852;SDS011;35751;48.072;11.688;2023-06-10T06:14:30;13.63;;;11.20;;
49852;SDS011;35751;48.072;11.688;2023-06-10T06:16:57;13.20;;;10.48;;
49852;SDS011;35751;48.072;11.688;2023-06-10T06:19:22;15.50;;;11.88;;
49852;SDS011;35751;48.072;11.688;2023-06-10T06:21:47;16.27;;;11.70;;
49852;SDS011;35751;48.072;11.688;2023-06-10T06:24:13;13.38;;;10.07;;
49852;SDS011;35751;48.072;11.688;2023-06-10T06:26:39;13.45;;;9.88;;
49852;SDS011;35751;48.072;11.688;2023-06-10T06:29:05;16.00;;;11.27;;
49852;SDS011;35751;48.072;11.688;2023-06-10T06:31:30;11.48;;;9.38;;
49852;SDS011;35751;48.072;11.688;2023-06-10T06:33:56;13.25;;;9.15;;
49852;SDS011;35751;48.072;11.688;2023-06-10T06:36:21;11.90;;;8.98;;
49852;SDS011;35751;48.072;11.688;2023-06-10T06:38:47;15.85;;;9.10;;
49852;SDS011;35751;48.072;11.688;2023-06-10T06:41:12;11.00;;;9.10;;
49852;SDS011;35751;48.072;11.688;2023-06-10T06:43:37;8.35;;;7.20;;
49852;SDS011;35751;48.072;11.688;2023-06-10T06:46:02;14.07;;;10.40;;
49852;SDS011;35751;48.072;11.688;2023-06-10T06:48:28;11.43;;;8.60;;
49852;SDS011;35751;48.072;11.688;2023-06-10T06:50:53;11.35;;;8.73;;
49852;SDS011;35751;48.072;11.688;2023-06-10T06:53:21;12.15;;;8.15;;
49852;SDS011;35751;48.072;11.688;2023-06-10T06:55:46;12.75;;;9.07;;
49852;SDS011;35751;48.072;11.688;2023-06-10T06:58:11;11.07;;;8.32;;
49852;SDS011;35751;48.072;11.688;2023-06-10T07:00:37;10.75;;;8.13;;
49852;SDS011;35751;48.072;11.688;2023-06-10T07:03:02;14.13;;;9.57;;
49852;SDS011;35751;48.072;11.688;2023-06-10T07:05:27;12.93;;;8.38;;
49852;SDS011;35751;48.072;11.688;2023-06-10T07:07:53;9.23;;;7.68;;
49852;SDS011;35751;48.072;11.688;2023-06-10T07:10:26;10.98;;;8.25;;
49852;SDS011;35751;48.072;11.688;2023-06-10T07:12:52;10.68;;;8.68;;
49852;SDS011;35751;48.072;11.688;2023-06-10T07:15:17;10.27;;;7.82;;
49852;SDS011;35751;48.072;11.688;2023-06-10T07:17:43;9.57;;;7.35;;
49852;SDS011;35751;48.072;11.688;2023-06-10T07:20:08;9.13;;;7.65;;
49852;SDS011;35751;48.072;11.688;2023-06-10T07:22:34;7.63;;;6.20;;
49852;SDS011;35751;48.072;11.688;2023-06-10T07:24:59;7.63;;;6.40;;
49852;SDS011;35751;48.072;11.688;2023-06-10T07:27:25;8.52;;;6.47;;
49852;SDS011;35751;48.072;11.688;2023-06-10T07:29:50;8.88;;;6.28;;
49852;SDS011;35751;48.072;11.688;2023-06-10T07:32:16;6.60;;;5.95;;
49852;SDS011;35751;48.072;11.688;2023-06-10T07:34:41;8.27;;;6.22;;
49852;SDS011;35751;48.072;11.688;2023-06-10T07:37:07;8.00;;;6.82;;
49852;SDS011;35751;48.072;11.688;2023-06-10T07:39:32;8.93;;;6.57;;
49852;SDS011;35751;48.072;11.688;2023-06-10T07:41:57;6.93;;;4.95;;
49852;SDS011;35751;48.072;11.688;2023-06-10T07:44:23;6.47;;;5.78;;
49852;SDS011;35751;48.072;11.688;2023-06-10T07:46:48;8.35;;;6.47;;
49852;SDS011;35751;48.072;11.688;2023-06-10T07:49:14;6.97;;;4.93;;
49852;SDS011;35751;48.072;11.688;2023-06-10T07:51:39;7.75;;;5.07;;
49852;SDS011;35751;48.072;11.688;2023-06-10T07:54:05;6.82;;;5.32;;
49852;SDS011;35751;48.072;11.688;2023-06-10T07:56:30;7.65;;;5.47;;
49852;SDS011;35751;48.072;11.688;2023-06-10T07:58:56;6.35;;;5.25;;
49852;SDS011;35751;48.072;11.688;2023-06-10T08:01:22;7.57;;;5.05;;
49852;SDS011;35751;48.072;11.688;2023-06-10T08:03:48;7.70;;;5.07;;
49852;SDS011;35751;48.072;11.688;2023-06-10T08:06:13;6.68;;;4.70;;
49852;SDS011;35751;48.072;11.688;2023-06-10T08:08:39;4.60;;;3.72;;
49852;SDS011;35751;48.072;11.688;2023-06-10T08:11:07;7.80;;;4.45;;
49852;SDS011;35751;48.072;11.688;2023-06-10T08:13:33;4.40;;;3.90;;
49852;SDS011;35751;48.072;11.688;2023-06-10T08:15:58;5.00;;;4.30;;
49852;SDS011;35751;48.072;11.688;2023-06-10T08:18:24;4.90;;;4.18;;
49852;SDS011;35751;48.072;11.688;2023-06-10T08:20:49;6.80;;;4.60;;
49852;SDS011;35751;48.072;11.688;2023-06-10T08:23:14;5.60;;;4.43;;
49852;SDS011;35751;48.072;11.688;2023-06-10T08:25:40;4.25;;;3.45;;
49852;SDS011;35751;48.072;11.688;2023-06-10T08:28:05;8.32;;;4.40;;
49852;SDS011;35751;48.072;11.688;2023-06-10T08:30:30;5.72;;;4.60;;
49852;SDS011;35751;48.072;11.688;2023-06-10T08:32:56;6.18;;;4.13;;
49852;SDS011;35751;48.072;11.688;2023-06-10T08:35:21;4.68;;;4.20;;
49852;SDS011;35751;48.072;11.688;2023-06-10T08:37:46;4.93;;;4.40;;
49852;SDS011;35751;48.072;11.688;2023-06-10T08:40:12;4.85;;;4.13;;
49852;SDS011;35751;48.072;11.688;2023-06-10T08:42:45;4.25;;;3.28;;
49852;SDS011;35751;48.072;11.688;2023-06-10T08:45:32;5.55;;;3.47;;
49852;SDS011;35751;48.072;11.688;2023-06-10T08:48:00;4.47;;;3.63;;
49852;SDS011;35751;48.072;11.688;2023-06-10T08:50:28;3.55;;;3.15;;
49852;SDS011;35751;48.072;11.688;2023-06-10T08:52:57;3.50;;;3.20;;
49852;SDS011;35751;48.072;11.688;2023-06-10T08:55:27;4.20;;;3.08;;
49852;SDS011;35751;48.072;11.688;2023-06-10T08:57:54;4.30;;;3.90;;
49852;SDS011;35751;48.072;11.688;2023-06-10T09:00:19;4.68;;;4.25;;
49852;SDS011;35751;48.072;11.688;2023-06-10T09:02:45;6.18;;;3.60;;
49852;SDS011;35751;48.072;11.688;2023-06-10T09:05:11;5.03;;;3.92;;
49852;SDS011;35751;48.072;11.688;2023-06-10T09:07:37;4.47;;;3.88;;
49852;SDS011;35751;48.072;11.688;2023-06-10T09:10:03;3.83;;;3.53;;
49852;SDS011;35751;48.072;11.688;2023-06-10T09:12:31;4.20;;;3.70;;
49852;SDS011;35751;48.072;11.688;2023-06-10T09:14:57;4.15;;;3.67;;
49852;SDS011;35751;48.072;11.688;2023-06-10T09:17:22;4.28;;;3.80;;
49852;SDS011;35751;48.072;11.688;2023-06-10T09:19:47;4.10;;;3.17;;
49852;SDS011;35751;48.072;11.688;2023-06-10T09:22:13;4.13;;;3.60;;
49852;SDS011;35751;48.072;11.688;2023-06-10T09:24:38;4.57;;;3.60;;
49852;SDS011;35751;48.072;11.688;2023-06-10T09:27:04;5.15;;;4.20;;
49852;SDS011;35751;48.072;11.688;2023-06-10T09:29:31;4.43;;;3.67;;
49852;SDS011;35751;48.072;11.688;2023-06-10T09:31:57;4.25;;;3.33;;
49852;SDS011;35751;48.072;11.688;2023-06-10T09:34:24;5.85;;;3.92;;
49852;SDS011;35751;48.072;11.688;2023-06-10T09:36:50;5.07;;;4.38;;
49852;SDS011;35751;48.072;11.688;2023-06-10T09:39:16;7.45;;;4.00;;
49852;SDS011;35751;48.072;11.688;2023-06-10T09:41:43;5.47;;;4.07;;
49852;SDS011;35751;48.072;11.688;2023-06-10T09:44:16;5.57;;;4.15;;
49852;SDS011;35751;48.072;11.688;2023-06-10T09:46:46;4.50;;;3.65;;
49852;SDS011;35751;48.072;11.688;2023-06-10T09:49:13;6.80;;;3.58;;
49852;SDS011;35751;48.072;11.688;2023-06-10T09:51:48;6.05;;;4.38;;
49852;SDS011;35751;48.072;11.688;2023-06-10T09:54:17;4.28;;;3.85;;
49852;SDS011;35751;48.072;11.688;2023-06-10T09:56:43;5.70;;;4.93;;
49852;SDS011;35751;48.072;11.688;2023-06-10T09:59:11;5.45;;;4.75;;
49852;SDS011;35751;48.072;11.688;2023-06-10T10:01:37;6.00;;;4.13;;
49852;SDS011;35751;48.072;11.688;2023-06-10T10:04:02;5.00;;;4.38;;
49852;SDS011;35751;48.072;11.688;2023-06-10T10:06:29;5.70;;;4.35;;
49852;SDS011;35751;48.072;11.688;2023-06-10T10:08:55;6.10;;;4.13;;
49852;SDS011;35751;48.072;11.688;2023-06-10T10:11:21;5.80;;;4.20;;
49852;SDS011;35751;48.072;11.688;2023-06-10T10:13:51;5.85;;;4.22;;
49852;SDS011;35751;48.072;11.688;2023-06-10T10:16:19;4.80;;;4.30;;
49852;SDS011;35751;48.072;11.688;2023-06-10T10:18:47;4.97;;;4.18;;
49852;SDS011;35751;48.072;11.688;2023-06-10T10:21:16;5.35;;;4.35;;
49852;SDS011;35751;48.072;11.688;2023-06-10T10:26:26;7.10;;;4.25;;
49852;SDS011;35751;48.072;11.688;2023-06-10T10:29:01;4.88;;;4.07;;
49852;SDS011;35751;48.072;11.688;2023-06-10T10:31:30;5.90;;;3.45;;
49852;SDS011;35751;48.072;11.688;2023-06-10T10:33:58;6.32;;;4.25;;
49852;SDS011;35751;48.072;11.688;2023-06-10T10:36:24;4.70;;;3.63;;
49852;SDS011;35751;48.072;11.688;2023-06-10T10:38:50;4.70;;;4.03;;
49852;SDS011;35751;48.072;11.688;2023-06-10T10:41:16;5.68;;;3.92;;
49852;SDS011;35751;48.072;11.688;2023-06-10T10:43:43;3.60;;;3.25;;
49852;SDS011;35751;48.072;11.688;2023-06-10T10:46:11;5.95;;;3.85;;
49852;SDS011;35751;48.072;11.688;2023-06-10T10:48:38;5.78;;;4.22;;
49852;SDS011;35751;48.072;11.688;2023-06-10T10:51:06;4.90;;;4.18;;
49852;SDS011;35751;48.072;11.688;2023-06-10T10:53:31;5.20;;;3.80;;
49852;SDS011;35751;48.072;11.688;2023-06-10T10:56:02;5.63;;;3.63;;
49852;SDS011;35751;48.072;11.688;2023-06-10T11:10:56;4.88;;;4.25;;
49852;SDS011;35751;48.072;11.688;2023-06-10T11:13:21;3.72;;;3.42;;
49852;SDS011;35751;48.072;11.688;2023-06-10T11:15:48;3.83;;;3.40;;
49852;SDS011;35751;48.072;11.688;2023-06-10T11:28:41;4.45;;;3.20;;
49852;SDS011;35751;48.072;11.688;2023-06-10T11:31:09;4.90;;;2.90;;
49852;SDS011;35751;48.072;11.688;2023-06-10T11:33:39;4.85;;;3.30;;
49852;SDS011;35751;48.072;11.688;2023-06-10T11:36:07;2.70;;;2.50;;
49852;SDS011;35751;48.072;11.688;2023-06-10T11:38:33;3.47;;;2.95;;
49852;SDS011;35751;48.072;11.688;2023-06-10T11:40:58;5.15;;;3.00;;
49852;SDS011;35751;48.072;11.688;2023-06-10T11:43:24;3.63;;;2.58;;
49852;SDS011;35751;48.072;11.688;2023-06-10T11:45:53;3.65;;;3.25;;
49852;SDS011;35751;48.072;11.688;2023-06-10T11:48:20;3.70;;;3.10;;
49852;SDS011;35751;48.072;11.688;2023-06-10T11:50:45;3.75;;;2.97;;
49852;SDS011;35751;48.072;11.688;2023-06-10T11:53:11;4.97;;;3.05;;
49852;SDS011;35751;48.072;11.688;2023-06-10T11:55:43;4.10;;;2.33;;
49852;SDS011;35751;48.072;11.688;2023-06-10T11:58:19;7.38;;;2.80;;
49852;SDS011;35751;48.072;11.688;2023-06-10T12:00:51;4.13;;;2.55;;
49852;SDS011;35751;48.072;11.688;2023-06-10T12:03:18;4.03;;;2.53;;
49852;SDS011;35751;48.072;11.688;2023-06-10T12:05:57;3.28;;;2.97;;
49852;SDS011;35751;48.072;11.688;2023-06-10T12:08:24;3.00;;;2.67;;
49852;SDS011;35751;48.072;11.688;2023-06-10T12:10:50;2.92;;;2.72;;
49852;SDS011;35751;48.072;11.688;2023-06-10T12:13:15;3.15;;;2.85;;
49852;SDS011;35751;48.072;11.688;2023-06-10T12:15:43;3.10;;;2.78;;
49852;SDS011;35751;48.072;11.688;2023-06-10T12:18:15;3.72;;;2.60;;
49852;SDS011;35751;48.072;11.688;2023-06-10T12:20:41;3.53;;;2.60;;
49852;SDS011;35751;48.072;11.688;2023-06-10T12:23:10;2.75;;;2.55;;
49852;SDS011;35751;48.072;11.688;2023-06-10T12:25:36;2.95;;;2.75;;
49852;SDS011;35751;48.072;11.688;2023-06-10T12:28:03;2.67;;;2.47;;
49852;SDS011;35751;48.072;11.688;2023-06-10T12:30:28;3.30;;;2.85;;
49852;SDS011;35751;48.072;11.688;2023-06-10T12:32:53;2.67;;;2.47;;
49852;SDS011;35751;48.072;11.688;2023-06-10T12:35:20;3.92;;;2.30;;
49852;SDS011;35751;48.072;11.688;2023-06-10T12:38:21;3.50;;;3.20;;
49852;SDS011;35751;48.072;11.688;2023-06-10T12:40:40;2.75;;;2.30;;
49852;SDS011;35751;48.072;11.688;2023-06-10T12:43:06;3.80;;;3.22;;
49852;SDS011;35751;48.072;11.688;2023-06-10T12:45:38;3.33;;;2.88;;
49852;SDS011;35751;48.072;11.688;2023-06-10T12:48:05;3.40;;;3.10;;
49852;SDS011;35751;48.072;11.688;2023-06-10T12:50:34;6.43;;;3.08;;
49852;SDS011;35751;48.072;11.688;2023-06-10T12:53:02;3.85;;;3.45;;
49852;SDS011;35751;48.072;11.688;2023-06-10T12:55:27;3.08;;;2.75;;
49852;SDS011;35751;48.072;11.688;2023-06-10T12:57:53;3.53;;;3.00;;
49852;SDS011;35751;48.072;11.688;2023-06-10T13:00:20;3.22;;;2.92;;
49852;SDS011;35751;48.072;11.688;2023-06-10T13:02:45;3.00;;;2.72;;
49852;SDS011;35751;48.072;11.688;2023-06-10T13:05:10;5.07;;;3.00;;
49852;SDS011;35751;48.072;11.688;2023-06-10T13:07:36;5.93;;;4.05;;
49852;SDS011;35751;48.072;11.688;2023-06-10T13:10:01;4.00;;;3.65;;
49852;SDS011;35751;48.072;11.688;2023-06-10T13:12:27;3.92;;;3.63;;
49852;SDS011;35751;48.072;11.688;2023-06-10T13:14:55;3.85;;;3.53;;
49852;SDS011;35751;48.072;11.688;2023-06-10T13:17:21;5.00;;;3.60;;
49852;SDS011;35751;48.072;11.688;2023-06-10T13:19:46;4.15;;;3.75;;
49852;SDS011;35751;48.072;11.688;2023-06-10T13:22:11;4.18;;;3.78;;
49852;SDS011;35751;48.072;11.688;2023-06-10T13:24:39;4.20;;;3.80;;
49852;SDS011;35751;48.072;11.688;2023-06-10T13:27:05;4.22;;;3.55;;
49852;SDS011;35751;48.072;11.688;2023-06-10T13:29:31;3.88;;;3.47;;
49852;SDS011;35751;48.072;11.688;2023-06-10T13:31:57;5.32;;;3.90;;
49852;SDS011;35751;48.072;11.688;2023-06-10T13:34:22;7.70;;;4.18;;
49852;SDS011;35751;48.072;11.688;2023-06-10T13:36:48;4.60;;;4.20;;
49852;SDS011;35751;48.072;11.688;2023-06-10T13:39:13;3.53;;;3.17;;
49852;SDS011;35751;48.072;11.688;2023-06-10T13:41:40;4.50;;;3.88;;
49852;SDS011;35751;48.072;11.688;2023-06-10T13:44:06;3.83;;;3.47;;
49852;SDS011;35751;48.072;11.688;2023-06-10T13:46:31;3.25;;;2.95;;
49852;SDS011;35751;48.072;11.688;2023-06-10T13:48:57;5.80;;;3.67;;
49852;SDS011;35751;48.072;11.688;2023-06-10T13:51:22;5.10;;;3.35;;
49852;SDS011;35751;48.072;11.688;2023-06-10T13:53:47;10.10;;;3.15;;
49852;SDS011;35751;48.072;11.688;2023-06-10T13:56:13;2.95;;;2.45;;
49852;SDS011;35751;48.072;11.688;2023-06-10T13:58:39;4.22;;;3.30;;
49852;SDS011;35751;48.072;11.688;2023-06-10T14:01:06;3.42;;;2.78;;
49852;SDS011;35751;48.072;11.688;2023-06-10T14:03:31;4.35;;;3.38;;
49852;SDS011;35751;48.072;11.688;2023-06-10T14:05:56;5.10;;;2.72;;
49852;SDS011;35751;48.072;11.688;2023-06-10T14:08:22;2.97;;;2.67;;
49852;SDS011;35751;48.072;11.688;2023-06-10T14:10:47;3.92;;;3.03;;
49852;SDS011;35751;48.072;11.688;2023-06-10T14:13:13;3.50;;;3.20;;
49852;SDS011;35751;48.072;11.688;2023-06-10T14:15:38;3.67;;;3.25;;
49852;SDS011;35751;48.072;11.688;2023-06-10T14:18:04;3.47;;;3.17;;
49852;SDS011;35751;48.072;11.688;2023-06-10T14:20:29;3.58;;;3.28;;
49852;SDS011;35751;48.072;11.688;2023-06-10T14:22:56;5.53;;;3.75;;
49852;SDS011;35751;48.072;11.688;2023-06-10T14:25:22;4.57;;;3.88;;
49852;SDS011;35751;48.072;11.688;2023-06-10T14:27:47;3.92;;;3.53;;
49852;SDS011;35751;48.072;11.688;2023-06-10T14:30:13;5.50;;;3.38;;
49852;SDS011;35751;48.072;11.688;2023-06-10T14:32:38;4.75;;;3.55;;
49852;SDS011;35751;48.072;11.688;2023-06-10T14:35:04;3.95;;;3.58;;
49852;SDS011;35751;48.072;11.688;2023-06-10T14:37:29;4.28;;;3.88;;
49852;SDS011;35751;48.072;11.688;2023-06-10T14:39:55;3.50;;;3.20;;
49852;SDS011;35751;48.072;11.688;2023-06-10T14:42:20;5.03;;;3.72;;
49852;SDS011;35751;48.072;11.688;2023-06-10T14:44:45;3.97;;;3.58;;
49852;SDS011;35751;48.072;11.688;2023-06-10T14:47:10;3.95;;;3.38;;
49852;SDS011;35751;48.072;11.688;2023-06-10T14:49:36;3.42;;;2.97;;
49852;SDS011;35751;48.072;11.688;2023-06-10T14:52:01;4.40;;;2.75;;
49852;SDS011;35751;48.072;11.688;2023-06-10T14:54:27;4.75;;;2.83;;
49852;SDS011;35751;48.072;11.688;2023-06-10T14:56:52;3.30;;;3.00;;